JBU4785 KSAT-MMUN
Flight info
| Callsign | JBU4785 |
|---|---|
| Flight time | 2h 9m |
| Altitude | 35000 |
| Route | SNIDR2 MOLLR DCT KLAMS A766 KEHLI UA766 ITLOM UM782 VOMAR VOMAR1A |
| Aircraft | A321/M-SDE3FGHIRWY/LB1 |
Departure
| Time | 2026-04-29 02:21 |
|---|---|
| Airport | San Antonio International Airport (KSAT) |
Arrival
| Time | 2026-04-29 04:30 |
|---|---|
| Airport | Cancún International Airport (MMUN) |
| Time | Latitude | Longitude | Altitude | Speed | Heading |
|---|---|---|---|---|---|
| 2026-04-29 02:01 | 29.52523 | -98.47163 | 795 ft | 0 kts | 324° |
| 2026-04-29 02:09 | 29.52520 | -98.47161 | 791 ft | 3 kts | 324° |
| 2026-04-29 02:10 | 29.52501 | -98.47145 | 808 ft | 4 kts | 334° |
| 2026-04-29 02:10 | 29.52477 | -98.47139 | 774 ft | 4 kts | 17° |
| 2026-04-29 02:10 | 29.52460 | -98.47149 | 771 ft | 1 kts | 41° |
| 2026-04-29 02:10 | 29.52457 | -98.47152 | 768 ft | 0 kts | 41° |
| 2026-04-29 02:13 | 29.52459 | -98.47150 | 770 ft | 3 kts | 41° |
| 2026-04-29 02:14 | 29.52517 | -98.47091 | 780 ft | 15 kts | 41° |
| 2026-04-29 02:14 | 29.52598 | -98.47009 | 780 ft | 16 kts | 41° |
| 2026-04-29 02:14 | 29.52679 | -98.46927 | 783 ft | 15 kts | 41° |
| 2026-04-29 02:14 | 29.52757 | -98.46906 | 784 ft | 8 kts | 335° |
| 2026-04-29 02:15 | 29.52812 | -98.46904 | 784 ft | 9 kts | 11° |
| 2026-04-29 02:15 | 29.52864 | -98.46930 | 785 ft | 8 kts | 320° |
| 2026-04-29 02:15 | 29.52899 | -98.46972 | 786 ft | 6 kts | 313° |
| 2026-04-29 02:15 | 29.52926 | -98.47006 | 787 ft | 5 kts | 313° |
| 2026-04-29 02:16 | 29.52951 | -98.47038 | 789 ft | 7 kts | 310° |
| 2026-04-29 02:16 | 29.53045 | -98.47160 | 789 ft | 26 kts | 311° |
| 2026-04-29 02:16 | 29.53160 | -98.47309 | 806 ft | 25 kts | 311° |
| 2026-04-29 02:16 | 29.53277 | -98.47459 | 796 ft | 25 kts | 311° |
| 2026-04-29 02:17 | 29.53394 | -98.47611 | 795 ft | 26 kts | 311° |
| 2026-04-29 02:17 | 29.53516 | -98.47767 | 796 ft | 26 kts | 312° |
| 2026-04-29 02:17 | 29.53636 | -98.47922 | 798 ft | 26 kts | 311° |
| 2026-04-29 02:17 | 29.53751 | -98.48071 | 804 ft | 24 kts | 311° |
| 2026-04-29 02:18 | 29.53861 | -98.48211 | 805 ft | 24 kts | 312° |
| 2026-04-29 02:18 | 29.53968 | -98.48350 | 807 ft | 23 kts | 311° |
| 2026-04-29 02:18 | 29.54077 | -98.48490 | 805 ft | 24 kts | 311° |
| 2026-04-29 02:18 | 29.54156 | -98.48588 | 805 ft | 16 kts | 320° |
| 2026-04-29 02:19 | 29.54209 | -98.48595 | 805 ft | 7 kts | 23° |
| 2026-04-29 02:19 | 29.54250 | -98.48561 | 805 ft | 5 kts | 45° |
| 2026-04-29 02:19 | 29.54259 | -98.48525 | 805 ft | 4 kts | 117° |
| 2026-04-29 02:19 | 29.54238 | -98.48507 | 805 ft | 4 kts | 137° |
| 2026-04-29 02:20 | 29.54194 | -98.48452 | 805 ft | 36 kts | 132° |
| 2026-04-29 02:20 | 29.53860 | -98.48023 | 803 ft | 105 kts | 132° |
| 2026-04-29 02:20 | 29.53240 | -98.47230 | 800 ft | 159 kts | 132° |
| 2026-04-29 02:20 | 29.52453 | -98.46225 | 1143 ft | 175 kts | 133° |
| 2026-04-29 02:21 | 29.51627 | -98.45147 | 1683 ft | 186 kts | 134° |
| 2026-04-29 02:21 | 29.50788 | -98.43964 | 2180 ft | 195 kts | 133° |
| 2026-04-29 02:21 | 29.49926 | -98.42720 | 2685 ft | 203 kts | 132° |
| 2026-04-29 02:21 | 29.49021 | -98.41409 | 3158 ft | 216 kts | 133° |
| 2026-04-29 02:22 | 29.48062 | -98.40016 | 3602 ft | 229 kts | 132° |
| 2026-04-29 02:22 | 29.47037 | -98.38536 | 4045 ft | 243 kts | 132° |
| 2026-04-29 02:22 | 29.45967 | -98.37003 | 4489 ft | 256 kts | 132° |
| 2026-04-29 02:22 | 29.44830 | -98.35387 | 4922 ft | 263 kts | 132° |
| 2026-04-29 02:23 | 29.43657 | -98.33730 | 5389 ft | 266 kts | 131° |
| 2026-04-29 02:23 | 29.42801 | -98.31827 | 5854 ft | 275 kts | 107° |
| 2026-04-29 02:23 | 29.42711 | -98.29632 | 6344 ft | 287 kts | 80° |
| 2026-04-29 02:23 | 29.43484 | -98.27498 | 6804 ft | 295 kts | 62° |
| 2026-04-29 02:24 | 29.44498 | -98.25442 | 7266 ft | 297 kts | 62° |
| 2026-04-29 02:24 | 29.45529 | -98.23378 | 7736 ft | 299 kts | 61° |
| 2026-04-29 02:24 | 29.46565 | -98.21305 | 8212 ft | 301 kts | 61° |
| 2026-04-29 02:25 | 29.48633 | -98.17128 | 9171 ft | 306 kts | 61° |
| 2026-04-29 02:25 | 29.49683 | -98.14991 | 9674 ft | 309 kts | 60° |
| 2026-04-29 02:25 | 29.50743 | -98.12832 | 10138 ft | 311 kts | 60° |
| 2026-04-29 02:25 | 29.51788 | -98.10704 | 10588 ft | 313 kts | 60° |
| 2026-04-29 02:26 | 29.52860 | -98.08519 | 11051 ft | 315 kts | 60° |
| 2026-04-29 02:26 | 29.53936 | -98.06317 | 11499 ft | 318 kts | 60° |
| 2026-04-29 02:26 | 29.55023 | -98.04095 | 11981 ft | 320 kts | 60° |
| 2026-04-29 02:26 | 29.56120 | -98.01861 | 12469 ft | 323 kts | 59° |
| 2026-04-29 02:27 | 29.57231 | -97.99608 | 12963 ft | 325 kts | 59° |
| 2026-04-29 02:27 | 29.58351 | -97.97337 | 13469 ft | 328 kts | 59° |
| 2026-04-29 02:27 | 29.59478 | -97.95039 | 13950 ft | 332 kts | 59° |
| 2026-04-29 02:27 | 29.60613 | -97.92711 | 14407 ft | 336 kts | 60° |
| 2026-04-29 02:28 | 29.61760 | -97.90356 | 14887 ft | 338 kts | 59° |
| 2026-04-29 02:28 | 29.62522 | -97.88793 | 15195 ft | 340 kts | 59° |
| 2026-04-29 02:28 | 29.64047 | -97.85582 | 15836 ft | 344 kts | 64° |
| 2026-04-29 02:28 | 29.64643 | -97.83884 | 16151 ft | 346 kts | 71° |
| 2026-04-29 02:29 | 29.65315 | -97.80279 | 16818 ft | 351 kts | 85° |
| 2026-04-29 02:29 | 29.65395 | -97.77467 | 17328 ft | 353 kts | 90° |
| 2026-04-29 02:29 | 29.65412 | -97.75553 | 17676 ft | 355 kts | 90° |
| 2026-04-29 02:29 | 29.65441 | -97.72700 | 18193 ft | 357 kts | 90° |
| 2026-04-29 02:30 | 29.65471 | -97.69834 | 18646 ft | 360 kts | 89° |
| 2026-04-29 02:30 | 29.65501 | -97.66991 | 19099 ft | 362 kts | 89° |
| 2026-04-29 02:30 | 29.65533 | -97.64091 | 19567 ft | 363 kts | 89° |
| 2026-04-29 02:30 | 29.65566 | -97.61182 | 20040 ft | 365 kts | 89° |
| 2026-04-29 02:31 | 29.65598 | -97.58263 | 20527 ft | 365 kts | 89° |
| 2026-04-29 02:31 | 29.65630 | -97.55333 | 20988 ft | 368 kts | 89° |
| 2026-04-29 02:31 | 29.65660 | -97.52365 | 21288 ft | 375 kts | 89° |
| 2026-04-29 02:31 | 29.65690 | -97.49343 | 21592 ft | 381 kts | 89° |
| 2026-04-29 02:32 | 29.65718 | -97.46272 | 21893 ft | 388 kts | 89° |
| 2026-04-29 02:32 | 29.65744 | -97.43149 | 22202 ft | 393 kts | 89° |
| 2026-04-29 02:32 | 29.65769 | -97.40000 | 22511 ft | 396 kts | 89° |
| 2026-04-29 02:32 | 29.65796 | -97.36817 | 22824 ft | 399 kts | 89° |
| 2026-04-29 02:33 | 29.65822 | -97.33619 | 23140 ft | 401 kts | 89° |
| 2026-04-29 02:33 | 29.65846 | -97.30397 | 23456 ft | 404 kts | 89° |
| 2026-04-29 02:33 | 29.65867 | -97.27153 | 23723 ft | 407 kts | 89° |
| 2026-04-29 02:33 | 29.65892 | -97.23886 | 23988 ft | 410 kts | 89° |
| 2026-04-29 02:34 | 29.65918 | -97.20603 | 24256 ft | 412 kts | 89° |
| 2026-04-29 02:34 | 29.65943 | -97.17302 | 24527 ft | 415 kts | 89° |
| 2026-04-29 02:34 | 29.65967 | -97.13977 | 24791 ft | 417 kts | 89° |
| 2026-04-29 02:34 | 29.65988 | -97.10631 | 25066 ft | 419 kts | 89° |
| 2026-04-29 02:35 | 29.66006 | -97.07269 | 25343 ft | 422 kts | 89° |
| 2026-04-29 02:35 | 29.66024 | -97.03887 | 25626 ft | 424 kts | 89° |
| 2026-04-29 02:35 | 29.66039 | -97.00481 | 25910 ft | 427 kts | 89° |
| 2026-04-29 02:35 | 29.66055 | -96.97107 | 26183 ft | 430 kts | 89° |
| 2026-04-29 02:36 | 29.66072 | -96.93662 | 26474 ft | 432 kts | 89° |
| 2026-04-29 02:36 | 29.66090 | -96.90194 | 26766 ft | 435 kts | 88° |
| 2026-04-29 02:36 | 29.66105 | -96.86710 | 27062 ft | 437 kts | 89° |
| 2026-04-29 02:36 | 29.66120 | -96.83198 | 27348 ft | 440 kts | 88° |
| 2026-04-29 02:37 | 29.66136 | -96.79671 | 27646 ft | 443 kts | 88° |
| 2026-04-29 02:37 | 29.66154 | -96.76113 | 27953 ft | 446 kts | 88° |
| 2026-04-29 02:37 | 29.66170 | -96.72540 | 28264 ft | 449 kts | 88° |
| 2026-04-29 02:37 | 29.66185 | -96.68940 | 28564 ft | 451 kts | 88° |
| 2026-04-29 02:38 | 29.66198 | -96.65316 | 28880 ft | 454 kts | 88° |
| 2026-04-29 02:38 | 29.66210 | -96.61673 | 29209 ft | 456 kts | 88° |
| 2026-04-29 02:38 | 29.66218 | -96.58021 | 29518 ft | 457 kts | 88° |
| 2026-04-29 02:38 | 29.66224 | -96.54357 | 29911 ft | 459 kts | 88° |
| 2026-04-29 02:39 | 29.66231 | -96.50684 | 30204 ft | 461 kts | 88° |
| 2026-04-29 02:39 | 29.66238 | -96.46992 | 30496 ft | 462 kts | 88° |
| 2026-04-29 02:39 | 29.66236 | -96.43297 | 30788 ft | 463 kts | 88° |
| 2026-04-29 02:39 | 29.66227 | -96.39594 | 31084 ft | 463 kts | 88° |
| 2026-04-29 02:40 | 29.66217 | -96.35889 | 31375 ft | 464 kts | 88° |
| 2026-04-29 02:40 | 29.66209 | -96.32181 | 31655 ft | 464 kts | 87° |
| 2026-04-29 02:40 | 29.66200 | -96.28472 | 31948 ft | 464 kts | 87° |
| 2026-04-29 02:40 | 29.66191 | -96.24818 | 32239 ft | 463 kts | 87° |
| 2026-04-29 02:41 | 29.66182 | -96.21115 | 32527 ft | 463 kts | 87° |
| 2026-04-29 02:41 | 29.66171 | -96.17414 | 32819 ft | 462 kts | 87° |
| 2026-04-29 02:41 | 29.66159 | -96.13726 | 33106 ft | 461 kts | 87° |
| 2026-04-29 02:41 | 29.66147 | -96.10040 | 33401 ft | 460 kts | 87° |
| 2026-04-29 02:42 | 29.66134 | -96.06349 | 33640 ft | 461 kts | 86° |
| 2026-04-29 02:42 | 29.66119 | -96.02644 | 33789 ft | 465 kts | 86° |
| 2026-04-29 02:42 | 29.66103 | -95.98908 | 33910 ft | 468 kts | 86° |
| 2026-04-29 02:43 | 29.66067 | -95.91358 | 34104 ft | 476 kts | 86° |
| 2026-04-29 02:43 | 29.66026 | -95.83692 | 34290 ft | 483 kts | 87° |
| 2026-04-29 02:44 | 29.65982 | -95.75897 | 34485 ft | 491 kts | 87° |
| 2026-04-29 02:44 | 29.65923 | -95.67986 | 34674 ft | 499 kts | 86° |
| 2026-04-29 02:45 | 29.65845 | -95.59962 | 34896 ft | 505 kts | 87° |
| 2026-04-29 02:45 | 29.65763 | -95.51859 | 34965 ft | 516 kts | 87° |
| 2026-04-29 02:46 | 29.65698 | -95.43512 | 34968 ft | 528 kts | 87° |
| 2026-04-29 02:46 | 29.65618 | -95.34969 | 34970 ft | 541 kts | 90° |
| 2026-04-29 02:47 | 29.64131 | -95.26425 | 34968 ft | 551 kts | 110° |
| 2026-04-29 02:47 | 29.60527 | -95.18680 | 34971 ft | 551 kts | 124° |
| 2026-04-29 02:48 | 29.56379 | -95.11283 | 34970 ft | 551 kts | 124° |
| 2026-04-29 02:48 | 29.52257 | -95.03862 | 34994 ft | 551 kts | 124° |
| 2026-04-29 02:49 | 29.48118 | -94.96446 | 34997 ft | 552 kts | 124° |
| 2026-04-29 02:49 | 29.43952 | -94.89046 | 34992 ft | 552 kts | 124° |
| 2026-04-29 02:50 | 29.39776 | -94.81649 | 35012 ft | 552 kts | 124° |
| 2026-04-29 02:50 | 29.35606 | -94.74252 | 35024 ft | 552 kts | 123° |
| 2026-04-29 02:51 | 29.31440 | -94.66861 | 35005 ft | 552 kts | 124° |
| 2026-04-29 02:51 | 29.27292 | -94.59526 | 35007 ft | 552 kts | 124° |
| 2026-04-29 02:52 | 29.23103 | -94.52154 | 35013 ft | 552 kts | 123° |
| 2026-04-29 02:52 | 29.18915 | -94.44782 | 35012 ft | 552 kts | 123° |
| 2026-04-29 02:53 | 29.14734 | -94.37418 | 35011 ft | 552 kts | 123° |
| 2026-04-29 02:53 | 29.10544 | -94.30075 | 35015 ft | 551 kts | 123° |
| 2026-04-29 02:54 | 29.06349 | -94.22746 | 35011 ft | 551 kts | 123° |
| 2026-04-29 02:54 | 29.02158 | -94.15411 | 35016 ft | 551 kts | 123° |
| 2026-04-29 02:55 | 28.97954 | -94.08074 | 35015 ft | 551 kts | 123° |
| 2026-04-29 02:55 | 28.93750 | -94.00747 | 35011 ft | 551 kts | 123° |
| 2026-04-29 02:56 | 28.89546 | -93.93436 | 35009 ft | 551 kts | 123° |
| 2026-04-29 02:56 | 28.85338 | -93.86132 | 35019 ft | 551 kts | 123° |
| 2026-04-29 02:57 | 28.81127 | -93.78839 | 35025 ft | 551 kts | 123° |
| 2026-04-29 02:57 | 28.76907 | -93.71545 | 35020 ft | 551 kts | 123° |
| 2026-04-29 02:58 | 28.72685 | -93.64254 | 35020 ft | 552 kts | 123° |
| 2026-04-29 02:58 | 28.68454 | -93.56954 | 35022 ft | 552 kts | 123° |
| 2026-04-29 02:59 | 28.64214 | -93.49657 | 35028 ft | 552 kts | 123° |
| 2026-04-29 02:59 | 28.59996 | -93.42415 | 35019 ft | 552 kts | 122° |
| 2026-04-29 03:00 | 28.55742 | -93.35129 | 35025 ft | 552 kts | 122° |
| 2026-04-29 03:00 | 28.51498 | -93.27852 | 35031 ft | 552 kts | 122° |
| 2026-04-29 03:01 | 28.47245 | -93.20574 | 35033 ft | 552 kts | 122° |
| 2026-04-29 03:01 | 28.42989 | -93.13306 | 35037 ft | 552 kts | 123° |
| 2026-04-29 03:02 | 28.38729 | -93.06053 | 35036 ft | 552 kts | 123° |
| 2026-04-29 03:02 | 28.34460 | -92.98803 | 35043 ft | 552 kts | 122° |
| 2026-04-29 03:03 | 28.30196 | -92.91569 | 35034 ft | 551 kts | 122° |
| 2026-04-29 03:03 | 28.25791 | -92.84451 | 35035 ft | 551 kts | 130° |
| 2026-04-29 03:04 | 28.20087 | -92.78706 | 35041 ft | 548 kts | 146° |
| 2026-04-29 03:04 | 28.13945 | -92.73662 | 35044 ft | 549 kts | 146° |
| 2026-04-29 03:05 | 28.07784 | -92.68555 | 35043 ft | 549 kts | 145° |
| 2026-04-29 03:05 | 28.01617 | -92.63452 | 35032 ft | 549 kts | 145° |
| 2026-04-29 03:06 | 27.95437 | -92.58369 | 35045 ft | 549 kts | 145° |
| 2026-04-29 03:06 | 27.89248 | -92.53292 | 35048 ft | 549 kts | 145° |
| 2026-04-29 03:07 | 27.83060 | -92.48214 | 35050 ft | 549 kts | 145° |
| 2026-04-29 03:07 | 27.76877 | -92.43148 | 35055 ft | 549 kts | 145° |
| 2026-04-29 03:08 | 27.70693 | -92.38087 | 35054 ft | 549 kts | 145° |
| 2026-04-29 03:08 | 27.64501 | -92.33028 | 35053 ft | 549 kts | 145° |
| 2026-04-29 03:09 | 27.58351 | -92.28021 | 35054 ft | 549 kts | 145° |
| 2026-04-29 03:09 | 27.52159 | -92.22986 | 35054 ft | 549 kts | 145° |
| 2026-04-29 03:10 | 27.45965 | -92.17952 | 35055 ft | 549 kts | 145° |
| 2026-04-29 03:10 | 27.39768 | -92.12923 | 35054 ft | 549 kts | 145° |
| 2026-04-29 03:11 | 27.33577 | -92.07889 | 35059 ft | 549 kts | 145° |
| 2026-04-29 03:11 | 27.27380 | -92.02858 | 35060 ft | 549 kts | 145° |
| 2026-04-29 03:12 | 27.21178 | -91.97849 | 35064 ft | 549 kts | 145° |
| 2026-04-29 03:12 | 27.14963 | -91.92840 | 35049 ft | 549 kts | 145° |
| 2026-04-29 03:13 | 27.08759 | -91.87833 | 35063 ft | 550 kts | 144° |
| 2026-04-29 03:13 | 27.02550 | -91.82825 | 35066 ft | 550 kts | 144° |
| 2026-04-29 03:14 | 26.96325 | -91.77828 | 35064 ft | 550 kts | 145° |
| 2026-04-29 03:14 | 26.90090 | -91.72840 | 35067 ft | 550 kts | 145° |
| 2026-04-29 03:15 | 26.83860 | -91.67846 | 35063 ft | 550 kts | 144° |
| 2026-04-29 03:15 | 26.77676 | -91.62884 | 35072 ft | 550 kts | 144° |
| 2026-04-29 03:16 | 26.71451 | -91.57903 | 35076 ft | 550 kts | 144° |
| 2026-04-29 03:16 | 26.65219 | -91.52927 | 35077 ft | 550 kts | 144° |
| 2026-04-29 03:17 | 26.60028 | -91.48795 | 35079 ft | 550 kts | 144° |
| 2026-04-29 03:17 | 26.53794 | -91.43833 | 35069 ft | 550 kts | 144° |
| 2026-04-29 03:18 | 26.47566 | -91.38881 | 35081 ft | 550 kts | 144° |
| 2026-04-29 03:18 | 26.41337 | -91.33928 | 35074 ft | 549 kts | 144° |
| 2026-04-29 03:19 | 26.35111 | -91.28979 | 35076 ft | 549 kts | 144° |
| 2026-04-29 03:19 | 26.28887 | -91.24049 | 35090 ft | 549 kts | 144° |
| 2026-04-29 03:20 | 26.22656 | -91.19132 | 35064 ft | 548 kts | 144° |
| 2026-04-29 03:20 | 26.16476 | -91.14251 | 35085 ft | 548 kts | 143° |
| 2026-04-29 03:21 | 26.10248 | -91.09335 | 35079 ft | 548 kts | 144° |
| 2026-04-29 03:21 | 26.04031 | -91.04435 | 35085 ft | 547 kts | 144° |
| 2026-04-29 03:22 | 25.97818 | -90.99551 | 35079 ft | 547 kts | 144° |
| 2026-04-29 03:22 | 25.91604 | -90.94669 | 35070 ft | 546 kts | 143° |
| 2026-04-29 03:23 | 25.85399 | -90.89794 | 35085 ft | 546 kts | 144° |
| 2026-04-29 03:23 | 25.79190 | -90.84932 | 35086 ft | 546 kts | 144° |
| 2026-04-29 03:24 | 25.72985 | -90.80072 | 35086 ft | 546 kts | 144° |
| 2026-04-29 03:24 | 25.66778 | -90.75219 | 35101 ft | 546 kts | 143° |
| 2026-04-29 03:25 | 25.60575 | -90.70372 | 35084 ft | 545 kts | 143° |
| 2026-04-29 03:25 | 25.54374 | -90.65539 | 35091 ft | 545 kts | 143° |
| 2026-04-29 03:26 | 25.48217 | -90.60752 | 35095 ft | 544 kts | 143° |
| 2026-04-29 03:26 | 25.42020 | -90.55934 | 35095 ft | 544 kts | 143° |
| 2026-04-29 03:27 | 25.35822 | -90.51126 | 35095 ft | 544 kts | 143° |
| 2026-04-29 03:27 | 25.29624 | -90.46324 | 35090 ft | 544 kts | 143° |
| 2026-04-29 03:28 | 25.23429 | -90.41528 | 35094 ft | 543 kts | 143° |
| 2026-04-29 03:28 | 25.17238 | -90.36741 | 35105 ft | 543 kts | 143° |
| 2026-04-29 03:29 | 25.11051 | -90.31957 | 35098 ft | 543 kts | 143° |
| 2026-04-29 03:29 | 25.04865 | -90.27178 | 35095 ft | 543 kts | 143° |
| 2026-04-29 03:30 | 24.98678 | -90.22403 | 35087 ft | 542 kts | 143° |
| 2026-04-29 03:30 | 24.92495 | -90.17640 | 35094 ft | 542 kts | 143° |
| 2026-04-29 03:31 | 24.83213 | -90.10519 | 35101 ft | 542 kts | 143° |
| 2026-04-29 03:31 | 24.77028 | -90.05778 | 35098 ft | 541 kts | 143° |
| 2026-04-29 03:32 | 24.70854 | -90.01037 | 35096 ft | 541 kts | 143° |
| 2026-04-29 03:32 | 24.64717 | -89.96332 | 35102 ft | 541 kts | 143° |
| 2026-04-29 03:33 | 24.58535 | -89.91603 | 35093 ft | 541 kts | 143° |
| 2026-04-29 03:33 | 24.52350 | -89.86888 | 35091 ft | 541 kts | 143° |
| 2026-04-29 03:34 | 24.46162 | -89.82176 | 35091 ft | 541 kts | 143° |
| 2026-04-29 03:34 | 24.39982 | -89.77457 | 35091 ft | 541 kts | 143° |
| 2026-04-29 03:35 | 24.33798 | -89.72743 | 35087 ft | 541 kts | 143° |
| 2026-04-29 03:35 | 24.27614 | -89.68041 | 35089 ft | 540 kts | 143° |
| 2026-04-29 03:36 | 24.21437 | -89.63348 | 35086 ft | 540 kts | 143° |
| 2026-04-29 03:36 | 24.15255 | -89.58669 | 35086 ft | 540 kts | 143° |
| 2026-04-29 03:37 | 24.09112 | -89.54023 | 35086 ft | 540 kts | 143° |
| 2026-04-29 03:37 | 24.02944 | -89.49338 | 35082 ft | 540 kts | 143° |
| 2026-04-29 03:38 | 23.96768 | -89.44665 | 35079 ft | 540 kts | 143° |
| 2026-04-29 03:38 | 23.90590 | -89.40008 | 35079 ft | 540 kts | 143° |
| 2026-04-29 03:39 | 23.84400 | -89.35343 | 35078 ft | 539 kts | 143° |
| 2026-04-29 03:39 | 23.78226 | -89.30681 | 35077 ft | 539 kts | 143° |
| 2026-04-29 03:40 | 23.72053 | -89.26021 | 35069 ft | 539 kts | 143° |
| 2026-04-29 03:40 | 23.65873 | -89.21384 | 35082 ft | 539 kts | 143° |
| 2026-04-29 03:41 | 23.59680 | -89.16740 | 35072 ft | 540 kts | 143° |
| 2026-04-29 03:41 | 23.53492 | -89.12097 | 35071 ft | 540 kts | 143° |
| 2026-04-29 03:42 | 23.47308 | -89.07454 | 35069 ft | 540 kts | 143° |
| 2026-04-29 03:42 | 23.41109 | -89.02816 | 35064 ft | 540 kts | 143° |
| 2026-04-29 03:43 | 23.34911 | -88.98192 | 35066 ft | 540 kts | 143° |
| 2026-04-29 03:43 | 23.28711 | -88.93562 | 35069 ft | 540 kts | 143° |
| 2026-04-29 03:44 | 23.22513 | -88.88930 | 35072 ft | 540 kts | 143° |
| 2026-04-29 03:44 | 23.16311 | -88.84308 | 35087 ft | 541 kts | 143° |
| 2026-04-29 03:45 | 23.10098 | -88.79693 | 35061 ft | 541 kts | 143° |
| 2026-04-29 03:45 | 23.03919 | -88.75104 | 35075 ft | 541 kts | 143° |
| 2026-04-29 03:46 | 22.97712 | -88.70493 | 35071 ft | 540 kts | 143° |
| 2026-04-29 03:46 | 22.91509 | -88.65883 | 35068 ft | 540 kts | 143° |
| 2026-04-29 03:47 | 22.85307 | -88.61280 | 35071 ft | 540 kts | 143° |
| 2026-04-29 03:47 | 22.79100 | -88.56695 | 35064 ft | 540 kts | 143° |
| 2026-04-29 03:48 | 22.72899 | -88.52118 | 35026 ft | 535 kts | 143° |
| 2026-04-29 03:48 | 22.69860 | -88.49881 | 34909 ft | 522 kts | 143° |
| 2026-04-29 03:48 | 22.66909 | -88.47666 | 34785 ft | 508 kts | 138° |
| 2026-04-29 03:49 | 22.64271 | -88.45186 | 34465 ft | 499 kts | 133° |
| 2026-04-29 03:49 | 22.61719 | -88.42636 | 33916 ft | 499 kts | 132° |
| 2026-04-29 03:49 | 22.59205 | -88.40110 | 33289 ft | 500 kts | 133° |
| 2026-04-29 03:49 | 22.56659 | -88.37550 | 32690 ft | 499 kts | 133° |
| 2026-04-29 03:50 | 22.54118 | -88.34999 | 32119 ft | 498 kts | 133° |
| 2026-04-29 03:50 | 22.51580 | -88.32456 | 31551 ft | 496 kts | 134° |
| 2026-04-29 03:50 | 22.49044 | -88.29921 | 30982 ft | 495 kts | 134° |
| 2026-04-29 03:50 | 22.46519 | -88.27405 | 30404 ft | 494 kts | 135° |
| 2026-04-29 03:51 | 22.43987 | -88.24887 | 29666 ft | 495 kts | 135° |
| 2026-04-29 03:51 | 22.41453 | -88.22370 | 28889 ft | 495 kts | 135° |
| 2026-04-29 03:51 | 22.38923 | -88.19855 | 28144 ft | 494 kts | 135° |
| 2026-04-29 03:51 | 22.36396 | -88.17346 | 27416 ft | 493 kts | 135° |
| 2026-04-29 03:52 | 22.33871 | -88.14835 | 26718 ft | 492 kts | 135° |
| 2026-04-29 03:52 | 22.31358 | -88.12330 | 26009 ft | 491 kts | 135° |
| 2026-04-29 03:52 | 22.28842 | -88.09825 | 25331 ft | 491 kts | 135° |
| 2026-04-29 03:52 | 22.26325 | -88.07321 | 24674 ft | 491 kts | 135° |
| 2026-04-29 03:53 | 22.23811 | -88.04825 | 24017 ft | 491 kts | 135° |
| 2026-04-29 03:53 | 22.21300 | -88.02331 | 23344 ft | 491 kts | 135° |
| 2026-04-29 03:53 | 22.18789 | -87.99838 | 22592 ft | 491 kts | 135° |
| 2026-04-29 03:53 | 22.16279 | -87.97347 | 21870 ft | 491 kts | 135° |
| 2026-04-29 03:54 | 22.13764 | -87.94860 | 21158 ft | 491 kts | 135° |
| 2026-04-29 03:54 | 22.11247 | -87.92374 | 20474 ft | 491 kts | 135° |
| 2026-04-29 03:54 | 22.08727 | -87.89887 | 20153 ft | 491 kts | 135° |
| 2026-04-29 03:54 | 22.06208 | -87.87401 | 19988 ft | 490 kts | 135° |
| 2026-04-29 03:55 | 22.03690 | -87.84917 | 20039 ft | 491 kts | 135° |
| 2026-04-29 03:55 | 22.01205 | -87.82463 | 20036 ft | 491 kts | 135° |
| 2026-04-29 03:55 | 21.98688 | -87.79973 | 19971 ft | 490 kts | 135° |
| 2026-04-29 03:55 | 21.96199 | -87.77507 | 19147 ft | 486 kts | 135° |
| 2026-04-29 03:56 | 21.93703 | -87.75036 | 18309 ft | 483 kts | 135° |
| 2026-04-29 03:56 | 21.91267 | -87.72634 | 17989 ft | 466 kts | 135° |
| 2026-04-29 03:56 | 21.88900 | -87.70307 | 17420 ft | 456 kts | 135° |
| 2026-04-29 03:56 | 21.86582 | -87.68023 | 16793 ft | 448 kts | 135° |
| 2026-04-29 03:57 | 21.84302 | -87.65773 | 16189 ft | 441 kts | 135° |
| 2026-04-29 03:57 | 21.82050 | -87.63553 | 15588 ft | 436 kts | 134° |
| 2026-04-29 03:57 | 21.79826 | -87.61363 | 15011 ft | 431 kts | 134° |
| 2026-04-29 03:57 | 21.77622 | -87.59195 | 14441 ft | 427 kts | 134° |
| 2026-04-29 03:58 | 21.75438 | -87.57047 | 13877 ft | 424 kts | 134° |
| 2026-04-29 03:58 | 21.73276 | -87.54920 | 13249 ft | 419 kts | 135° |
| 2026-04-29 03:58 | 21.71165 | -87.52844 | 12636 ft | 415 kts | 135° |
| 2026-04-29 03:58 | 21.69043 | -87.50758 | 12025 ft | 411 kts | 135° |
| 2026-04-29 03:59 | 21.66934 | -87.48690 | 11428 ft | 409 kts | 135° |
| 2026-04-29 03:59 | 21.64831 | -87.46630 | 10838 ft | 405 kts | 135° |
| 2026-04-29 03:59 | 21.62728 | -87.44643 | 10260 ft | 399 kts | 138° |
| 2026-04-29 03:59 | 21.60595 | -87.42760 | 9671 ft | 394 kts | 140° |
| 2026-04-29 04:00 | 21.58458 | -87.40952 | 9039 ft | 387 kts | 140° |
| 2026-04-29 04:00 | 21.56346 | -87.39194 | 8420 ft | 381 kts | 141° |
| 2026-04-29 04:00 | 21.54267 | -87.37463 | 7816 ft | 375 kts | 140° |
| 2026-04-29 04:00 | 21.52228 | -87.35753 | 7223 ft | 369 kts | 140° |
| 2026-04-29 04:01 | 21.50226 | -87.34059 | 6651 ft | 364 kts | 140° |
| 2026-04-29 04:01 | 21.48261 | -87.32382 | 6040 ft | 358 kts | 140° |
| 2026-04-29 04:01 | 21.46322 | -87.30724 | 5428 ft | 353 kts | 140° |
| 2026-04-29 04:01 | 21.44418 | -87.29095 | 4827 ft | 348 kts | 140° |
| 2026-04-29 04:02 | 21.42539 | -87.27490 | 4227 ft | 343 kts | 140° |
| 2026-04-29 04:02 | 21.40710 | -87.25928 | 4010 ft | 327 kts | 140° |
| 2026-04-29 04:02 | 21.39005 | -87.24472 | 3964 ft | 307 kts | 140° |
| 2026-04-29 04:02 | 21.37280 | -87.23241 | 3926 ft | 290 kts | 151° |
| 2026-04-29 04:03 | 21.35530 | -87.22291 | 3863 ft | 275 kts | 150° |
| 2026-04-29 04:03 | 21.33869 | -87.21388 | 3826 ft | 260 kts | 150° |
| 2026-04-29 04:03 | 21.32296 | -87.20533 | 3771 ft | 246 kts | 150° |
| 2026-04-29 04:03 | 21.30822 | -87.19733 | 3752 ft | 230 kts | 150° |
| 2026-04-29 04:04 | 21.29462 | -87.18906 | 3710 ft | 220 kts | 140° |
| 2026-04-29 04:04 | 21.28340 | -87.17941 | 3701 ft | 193 kts | 139° |
| 2026-04-29 04:04 | 21.27359 | -87.17101 | 3688 ft | 171 kts | 139° |
| 2026-04-29 04:04 | 21.26445 | -87.16319 | 3715 ft | 162 kts | 139° |
| 2026-04-29 04:05 | 21.25618 | -87.15614 | 3717 ft | 149 kts | 138° |
| 2026-04-29 04:05 | 21.24817 | -87.14927 | 3355 ft | 145 kts | 138° |
| 2026-04-29 04:05 | 21.24036 | -87.14257 | 2991 ft | 143 kts | 138° |
| 2026-04-29 04:05 | 21.23259 | -87.13590 | 2622 ft | 143 kts | 138° |
| 2026-04-29 04:06 | 21.22746 | -87.13149 | 2373 ft | 143 kts | 138° |
| 2026-04-29 04:06 | 21.21969 | -87.12483 | 2003 ft | 144 kts | 138° |
| 2026-04-29 04:06 | 21.21193 | -87.11817 | 1882 ft | 143 kts | 139° |
| 2026-04-29 04:06 | 21.20414 | -87.11148 | 1876 ft | 144 kts | 139° |
| 2026-04-29 04:07 | 21.19631 | -87.10477 | 1876 ft | 145 kts | 139° |
| 2026-04-29 04:07 | 21.18845 | -87.09805 | 1882 ft | 144 kts | 138° |
| 2026-04-29 04:07 | 21.18065 | -87.09137 | 1881 ft | 143 kts | 138° |
| 2026-04-29 04:07 | 21.17286 | -87.08471 | 1880 ft | 143 kts | 138° |
| 2026-04-29 04:08 | 21.16505 | -87.07803 | 1880 ft | 144 kts | 138° |
| 2026-04-29 04:08 | 21.15722 | -87.07134 | 1880 ft | 144 kts | 138° |
| 2026-04-29 04:08 | 21.14972 | -87.06425 | 1879 ft | 144 kts | 128° |
| 2026-04-29 04:08 | 21.14423 | -87.05532 | 1881 ft | 143 kts | 120° |
| 2026-04-29 04:09 | 21.13899 | -87.04640 | 1878 ft | 140 kts | 120° |
| 2026-04-29 04:09 | 21.13481 | -87.03725 | 1878 ft | 138 kts | 116° |
| 2026-04-29 04:09 | 21.13016 | -87.02828 | 1879 ft | 137 kts | 118° |
| 2026-04-29 04:09 | 21.12518 | -87.01955 | 1880 ft | 137 kts | 120° |
| 2026-04-29 04:10 | 21.12003 | -87.01095 | 1883 ft | 137 kts | 121° |
| 2026-04-29 04:10 | 21.11481 | -87.00241 | 1883 ft | 137 kts | 121° |
| 2026-04-29 04:10 | 21.10956 | -86.99390 | 1884 ft | 137 kts | 122° |
| 2026-04-29 04:10 | 21.10427 | -86.98539 | 1879 ft | 137 kts | 122° |
| 2026-04-29 04:11 | 21.09897 | -86.97688 | 1791 ft | 138 kts | 122° |
| 2026-04-29 04:11 | 21.09366 | -86.96837 | 1688 ft | 137 kts | 122° |
| 2026-04-29 04:11 | 21.08835 | -86.95987 | 1519 ft | 137 kts | 123° |
| 2026-04-29 04:11 | 21.08309 | -86.95143 | 1352 ft | 136 kts | 122° |
| 2026-04-29 04:12 | 21.07785 | -86.94306 | 1176 ft | 134 kts | 123° |
| 2026-04-29 04:12 | 21.07270 | -86.93481 | 1006 ft | 133 kts | 123° |
| 2026-04-29 04:12 | 21.06756 | -86.92659 | 838 ft | 134 kts | 123° |
| 2026-04-29 04:12 | 21.06231 | -86.91819 | 681 ft | 136 kts | 125° |
| 2026-04-29 04:13 | 21.05695 | -86.90963 | 479 ft | 140 kts | 123° |
| 2026-04-29 04:13 | 21.05148 | -86.90088 | 299 ft | 142 kts | 124° |
| 2026-04-29 04:13 | 21.04593 | -86.89207 | 154 ft | 142 kts | 123° |
| 2026-04-29 04:13 | 21.04084 | -86.88393 | 56 ft | 120 kts | 124° |
| 2026-04-29 04:14 | 21.03649 | -86.87698 | 42 ft | 112 kts | 123° |
| 2026-04-29 04:14 | 21.03118 | -86.86850 | 188 ft | 155 kts | 124° |
| 2026-04-29 04:14 | 21.02506 | -86.85880 | 931 ft | 162 kts | 123° |
| 2026-04-29 04:14 | 21.01839 | -86.84801 | 1250 ft | 191 kts | 123° |
| 2026-04-29 04:15 | 21.00977 | -86.83543 | 1523 ft | 230 kts | 132° |
| 2026-04-29 04:15 | 20.99825 | -86.82150 | 1817 ft | 262 kts | 120° |
| 2026-04-29 04:15 | 20.99308 | -86.80376 | 2096 ft | 239 kts | 91° |
| 2026-04-29 04:15 | 20.99704 | -86.78763 | 2377 ft | 223 kts | 58° |
| 2026-04-29 04:16 | 21.00707 | -86.77483 | 2685 ft | 226 kts | 49° |
| 2026-04-29 04:16 | 21.01827 | -86.76298 | 2933 ft | 228 kts | 47° |
| 2026-04-29 04:16 | 21.02966 | -86.75122 | 3003 ft | 226 kts | 47° |
| 2026-04-29 04:16 | 21.04108 | -86.73955 | 3012 ft | 227 kts | 47° |
| 2026-04-29 04:17 | 21.05248 | -86.72797 | 3014 ft | 226 kts | 47° |
| 2026-04-29 04:17 | 21.06455 | -86.71699 | 3003 ft | 231 kts | 31° |
| 2026-04-29 04:17 | 21.08011 | -86.71292 | 3012 ft | 239 kts | 359° |
| 2026-04-29 04:17 | 21.09600 | -86.71833 | 2978 ft | 246 kts | 326° |
| 2026-04-29 04:18 | 21.10789 | -86.73156 | 2980 ft | 249 kts | 305° |
| 2026-04-29 04:18 | 21.11754 | -86.74702 | 2986 ft | 250 kts | 302° |
| 2026-04-29 04:18 | 21.12682 | -86.76278 | 2980 ft | 250 kts | 302° |
| 2026-04-29 04:18 | 21.13643 | -86.77921 | 2990 ft | 273 kts | 302° |
| 2026-04-29 04:19 | 21.14667 | -86.79673 | 2977 ft | 280 kts | 302° |
| 2026-04-29 04:19 | 21.15701 | -86.81445 | 2976 ft | 281 kts | 302° |
| 2026-04-29 04:19 | 21.16739 | -86.83223 | 2978 ft | 281 kts | 302° |
| 2026-04-29 04:19 | 21.17775 | -86.84999 | 2980 ft | 281 kts | 302° |
| 2026-04-29 04:20 | 21.18811 | -86.86777 | 2983 ft | 281 kts | 302° |
| 2026-04-29 04:20 | 21.19849 | -86.88555 | 2978 ft | 281 kts | 302° |
| 2026-04-29 04:20 | 21.20887 | -86.90332 | 2980 ft | 281 kts | 302° |
| 2026-04-29 04:20 | 21.21926 | -86.92110 | 2976 ft | 281 kts | 302° |
| 2026-04-29 04:21 | 21.22965 | -86.93886 | 2980 ft | 282 kts | 302° |
| 2026-04-29 04:21 | 21.24005 | -86.95671 | 2984 ft | 284 kts | 302° |
| 2026-04-29 04:21 | 21.25042 | -86.97476 | 2984 ft | 285 kts | 302° |
| 2026-04-29 04:21 | 21.25886 | -86.99390 | 2975 ft | 285 kts | 283° |
| 2026-04-29 04:22 | 21.26016 | -87.01478 | 2882 ft | 278 kts | 259° |
| 2026-04-29 04:22 | 21.25406 | -87.03356 | 2770 ft | 259 kts | 235° |
| 2026-04-29 04:22 | 21.24297 | -87.04753 | 2661 ft | 234 kts | 214° |
| 2026-04-29 04:22 | 21.22991 | -87.05572 | 2597 ft | 202 kts | 195° |
| 2026-04-29 04:23 | 21.21750 | -87.05898 | 2609 ft | 169 kts | 180° |
| 2026-04-29 04:23 | 21.20628 | -87.05886 | 2643 ft | 156 kts | 167° |
| 2026-04-29 04:23 | 21.19597 | -87.05620 | 2635 ft | 149 kts | 155° |
| 2026-04-29 04:23 | 21.18691 | -87.05153 | 2636 ft | 145 kts | 144° |
| 2026-04-29 04:24 | 21.17858 | -87.04552 | 2640 ft | 144 kts | 142° |
| 2026-04-29 04:24 | 21.17028 | -87.03951 | 2636 ft | 144 kts | 142° |
| 2026-04-29 04:24 | 21.16200 | -87.03350 | 2633 ft | 144 kts | 142° |
| 2026-04-29 04:24 | 21.15379 | -87.02755 | 2631 ft | 141 kts | 142° |
| 2026-04-29 04:25 | 21.14572 | -87.02170 | 2625 ft | 140 kts | 142° |
| 2026-04-29 04:25 | 21.13774 | -87.01581 | 2624 ft | 139 kts | 138° |
| 2026-04-29 04:25 | 21.13154 | -87.00810 | 2633 ft | 137 kts | 120° |
| 2026-04-29 04:25 | 21.12672 | -86.99928 | 2529 ft | 138 kts | 117° |
| 2026-04-29 04:26 | 21.12200 | -86.99038 | 2341 ft | 137 kts | 120° |
| 2026-04-29 04:26 | 21.11698 | -86.98166 | 2160 ft | 138 kts | 121° |
| 2026-04-29 04:26 | 21.11179 | -86.97302 | 1984 ft | 138 kts | 122° |
| 2026-04-29 04:26 | 21.10652 | -86.96442 | 1806 ft | 138 kts | 122° |
| 2026-04-29 04:27 | 21.10122 | -86.95586 | 1624 ft | 138 kts | 122° |
| 2026-04-29 04:27 | 21.09590 | -86.94730 | 1444 ft | 138 kts | 122° |
| 2026-04-29 04:27 | 21.09057 | -86.93876 | 1301 ft | 138 kts | 122° |
| 2026-04-29 04:27 | 21.08524 | -86.93021 | 1124 ft | 138 kts | 122° |
| 2026-04-29 04:28 | 21.07993 | -86.92172 | 944 ft | 137 kts | 122° |
| 2026-04-29 04:28 | 21.07467 | -86.91331 | 782 ft | 136 kts | 119° |
| 2026-04-29 04:28 | 21.06922 | -86.90478 | 663 ft | 138 kts | 123° |
| 2026-04-29 04:28 | 21.06389 | -86.89619 | 466 ft | 141 kts | 122° |
| 2026-04-29 04:29 | 21.05852 | -86.88751 | 314 ft | 140 kts | 124° |
| 2026-04-29 04:29 | 21.05310 | -86.87882 | 86 ft | 140 kts | 124° |
| 2026-04-29 04:29 | 21.04812 | -86.87101 | 40 ft | 114 kts | 124° |
| 2026-04-29 04:29 | 21.04457 | -86.86515 | 39 ft | 58 kts | 124° |
| 2026-04-29 04:30 | 21.04371 | -86.86391 | 38 ft | 5 kts | 176° |
| 2026-04-29 04:30 | 21.04318 | -86.86393 | 39 ft | 11 kts | 176° |
| 2026-04-29 04:30 | 21.04194 | -86.86386 | 42 ft | 9 kts | 246° |
| 2026-04-29 04:31 | 21.04216 | -86.86458 | 43 ft | 18 kts | 300° |
| 2026-04-29 04:31 | 21.04324 | -86.86633 | 43 ft | 33 kts | 303° |
| 2026-04-29 04:31 | 21.04452 | -86.86837 | 43 ft | 33 kts | 304° |
| 2026-04-29 04:31 | 21.04584 | -86.87046 | 42 ft | 34 kts | 304° |
| 2026-04-29 04:32 | 21.04718 | -86.87263 | 42 ft | 35 kts | 303° |
| 2026-04-29 04:32 | 21.04856 | -86.87483 | 42 ft | 36 kts | 304° |
| 2026-04-29 04:32 | 21.04997 | -86.87706 | 42 ft | 36 kts | 304° |
| 2026-04-29 04:32 | 21.05139 | -86.87931 | 42 ft | 37 kts | 303° |
| 2026-04-29 04:33 | 21.05201 | -86.88055 | 42 ft | 18 kts | 276° |
| 2026-04-29 04:33 | 21.05124 | -86.88129 | 43 ft | 16 kts | 208° |